createdAt,value
2023-02-13T00:00:38.466Z,0.24
2023-02-13T00:03:06.275Z,0.44
2023-02-13T00:05:34.078Z,0.48
2023-02-13T00:08:01.758Z,0.42
2023-02-13T00:10:29.663Z,0.36
2023-02-13T00:12:57.332Z,0.39
2023-02-13T00:15:25.112Z,0.05
2023-02-13T00:17:52.781Z,0.20
2023-02-13T00:20:20.576Z,0.01
2023-02-13T00:22:48.274Z,-0.07
2023-02-13T00:25:16.013Z,0.24
2023-02-13T00:27:43.852Z,0.26
2023-02-13T00:30:12.008Z,0.22
2023-02-13T00:32:39.741Z,0.39
2023-02-13T00:35:07.710Z,-0.04
2023-02-13T00:37:35.382Z,-0.03
2023-02-13T00:40:03.283Z,-0.08
2023-02-13T00:42:31.156Z,-0.65
2023-02-13T00:44:58.891Z,-0.07
2023-02-13T00:47:26.569Z,0.03
2023-02-13T00:49:54.312Z,-0.02
2023-02-13T00:52:21.986Z,-0.04
2023-02-13T00:54:51.183Z,0.16
2023-02-13T00:57:18.850Z,0.27
2023-02-13T00:59:46.585Z,0.19
2023-02-13T01:02:14.499Z,0.09
2023-02-13T01:04:42.338Z,0.01
2023-02-13T01:07:10.051Z,0.16
2023-02-13T01:09:37.738Z,0.00
2023-02-13T01:12:05.572Z,-0.12
2023-02-13T01:14:33.527Z,-0.14
2023-02-13T01:17:01.252Z,-0.02
2023-02-13T01:19:28.951Z,-0.13
2023-02-13T01:21:56.686Z,-0.18
2023-02-13T01:24:24.403Z,-0.26
2023-02-13T01:26:52.548Z,-0.32
2023-02-13T01:29:21.882Z,-0.02
2023-02-13T01:31:49.915Z,0.06
2023-02-13T01:34:18.376Z,0.08
2023-02-13T01:36:46.140Z,0.14
2023-02-13T01:39:13.840Z,0.21
2023-02-13T01:41:41.636Z,0.22
2023-02-13T01:44:47.804Z,0.34
2023-02-13T01:47:22.922Z,0.12
2023-02-13T01:49:51.706Z,-0.05
2023-02-13T01:52:19.423Z,-0.02
2023-02-13T01:54:47.122Z,-0.02
2023-02-13T01:57:18.252Z,-0.04
2023-02-13T01:59:55.481Z,-0.20
2023-02-13T02:02:23.335Z,-0.05
2023-02-13T02:04:51.485Z,0.12
2023-02-13T02:07:25.566Z,0.20
2023-02-13T02:10:02.046Z,-0.37
2023-02-13T02:12:37.976Z,-0.19
2023-02-13T02:15:08.058Z,-0.07
2023-02-13T02:17:35.781Z,-0.21
2023-02-13T02:20:19.657Z,-0.12
2023-02-13T02:23:13.520Z,-0.25
2023-02-13T02:25:54.309Z,-0.23
2023-02-13T02:28:29.914Z,-0.03
2023-02-13T02:31:18.373Z,-0.14
2023-02-13T02:33:58.292Z,0.05
2023-02-13T02:36:54.672Z,-0.04
2023-02-13T02:39:44.402Z,-0.03
2023-02-13T02:42:15.263Z,-0.03
2023-02-13T02:44:52.404Z,0.15
2023-02-13T02:47:45.386Z,0.19
2023-02-13T02:50:15.154Z,-0.01
2023-02-13T02:53:04.101Z,-0.01
2023-02-13T02:55:52.691Z,-0.02
2023-02-13T02:58:45.344Z,-0.30
2023-02-13T03:01:35.462Z,-0.08
2023-02-13T03:04:22.214Z,-0.01
2023-02-13T03:06:53.546Z,0.04
2023-02-13T03:09:45.833Z,-0.24
2023-02-13T03:12:32.673Z,-0.42
2023-02-13T03:15:00.370Z,-0.37
2023-02-13T03:17:46.552Z,-0.13
2023-02-13T03:20:58.609Z,-0.08
2023-02-13T03:24:06.207Z,-0.25
2023-02-13T03:27:08.446Z,-0.23
2023-02-13T03:30:11.409Z,-0.17
2023-02-13T03:33:07.994Z,-0.19
2023-02-13T03:36:24.274Z,-0.44
2023-02-13T03:39:03.171Z,-1.59
2023-02-13T03:41:38.598Z,-0.96
2023-02-13T03:44:24.978Z,-1.30
2023-02-13T03:46:53.620Z,-1.76
2023-02-13T03:49:52.814Z,-1.41
2023-02-13T03:52:41.747Z,-0.91
2023-02-13T03:55:30.597Z,-1.06
2023-02-13T03:58:19.426Z,-1.11
2023-02-13T04:00:50.069Z,-1.04
2023-02-13T04:03:48.566Z,-0.95
2023-02-13T04:06:19.839Z,-1.22
2023-02-13T04:08:47.569Z,-1.09
2023-02-13T04:11:25.798Z,-1.35
2023-02-13T04:13:53.446Z,-0.92
2023-02-13T04:16:32.317Z,-0.87
2023-02-13T04:19:00.138Z,-1.09
2023-02-13T04:21:27.909Z,-1.10
2023-02-13T04:23:55.627Z,-1.53
2023-02-13T04:26:23.444Z,-1.43
2023-02-13T04:28:51.198Z,-1.21
2023-02-13T04:31:18.973Z,-1.49
2023-02-13T04:33:46.822Z,-1.31
2023-02-13T04:36:14.532Z,-1.28
2023-02-13T04:38:42.256Z,-1.30
2023-02-13T04:41:09.950Z,-1.27
2023-02-13T04:43:37.689Z,-1.33
2023-02-13T04:46:05.575Z,-1.16
2023-02-13T04:48:33.383Z,-2.30
2023-02-13T04:51:01.077Z,-1.70
2023-02-13T04:53:28.786Z,-2.31
2023-02-13T04:55:56.548Z,-2.01
2023-02-13T04:58:24.261Z,-2.17
2023-02-13T05:00:52.010Z,-2.42
2023-02-13T05:03:19.697Z,-1.96
2023-02-13T05:05:48.437Z,-2.05
2023-02-13T05:08:16.186Z,-1.79
2023-02-13T05:10:43.884Z,-1.71
2023-02-13T05:13:12.118Z,-2.17
2023-02-13T05:15:39.924Z,-2.26
2023-02-13T05:18:07.605Z,-1.78
2023-02-13T05:20:35.356Z,-1.72
2023-02-13T05:23:21.557Z,-1.98
2023-02-13T05:25:49.435Z,-2.03
2023-02-13T05:28:35.650Z,-1.79
2023-02-13T05:31:03.729Z,-2.02
2023-02-13T05:33:31.987Z,-2.04
2023-02-13T05:35:59.728Z,-2.06
2023-02-13T05:38:27.396Z,-2.06
2023-02-13T05:40:55.592Z,-2.20
2023-02-13T05:43:23.572Z,-2.26
2023-02-13T05:45:52.287Z,-2.03
2023-02-13T05:48:19.995Z,-1.98
2023-02-13T05:50:48.275Z,-2.00
2023-02-13T05:53:16.005Z,-2.12
2023-02-13T05:55:43.735Z,-2.38
2023-02-13T05:58:12.010Z,-2.49
2023-02-13T06:00:39.801Z,-2.31
2023-02-13T06:03:07.663Z,-2.46
2023-02-13T06:05:35.412Z,-2.30
2023-02-13T06:08:03.368Z,-2.47
2023-02-13T06:10:31.128Z,-1.95
2023-02-13T06:12:58.855Z,-1.35
2023-02-13T06:15:26.600Z,-1.10
2023-02-13T06:17:54.305Z,-0.72
2023-02-13T06:20:22.091Z,-0.17
2023-02-13T06:22:50.706Z,0.53
2023-02-13T06:25:19.259Z,1.24
2023-02-13T06:27:46.969Z,1.97
2023-02-13T06:30:15.310Z,2.64
2023-02-13T06:32:43.299Z,3.23
2023-02-13T06:35:11.004Z,3.64
2023-02-13T06:37:39.327Z,4.32
2023-02-13T06:40:08.096Z,5.45
2023-02-13T06:42:35.779Z,6.56
2023-02-13T06:45:03.749Z,7.27
2023-02-13T06:47:31.558Z,7.53
2023-02-13T06:49:59.295Z,7.43
2023-02-13T06:52:27.475Z,7.58
2023-02-13T06:54:55.216Z,7.21
2023-02-13T06:57:23.107Z,7.75
2023-02-13T06:59:50.883Z,8.54
2023-02-13T07:02:18.640Z,9.27
2023-02-13T07:04:46.334Z,9.68
2023-02-13T07:07:14.115Z,10.00
2023-02-13T07:09:41.892Z,10.69
2023-02-13T07:12:09.598Z,11.60
2023-02-13T07:14:37.350Z,11.70
2023-02-13T07:17:05.063Z,11.33
2023-02-13T07:19:32.990Z,11.36
2023-02-13T07:22:00.737Z,11.92
2023-02-13T07:24:28.466Z,12.16
2023-02-13T07:26:56.188Z,12.98
2023-02-13T07:29:23.971Z,13.45
2023-02-13T07:31:51.661Z,14.36
2023-02-13T07:34:19.431Z,15.17
2023-02-13T07:36:47.128Z,15.49
2023-02-13T07:39:14.904Z,15.60
2023-02-13T07:41:42.595Z,16.09
2023-02-13T07:44:10.422Z,16.57
2023-02-13T07:46:38.300Z,16.83
2023-02-13T07:49:06.027Z,16.56
2023-02-13T07:51:33.803Z,16.31
2023-02-13T07:54:02.146Z,16.27
2023-02-13T07:56:30.021Z,16.22
2023-02-13T07:58:57.732Z,16.08
2023-02-13T08:01:25.613Z,16.41
2023-02-13T08:03:53.460Z,17.06
2023-02-13T08:06:21.347Z,17.81
2023-02-13T08:08:49.115Z,18.26
2023-02-13T08:11:43.245Z,18.98
2023-02-13T08:14:11.046Z,19.21
2023-02-13T08:16:38.760Z,19.31
2023-02-13T08:19:06.519Z,19.61
2023-02-13T08:21:35.332Z,19.58
2023-02-13T08:24:03.062Z,19.98
2023-02-13T08:26:33.901Z,20.35
2023-02-13T08:29:01.882Z,20.75
2023-02-13T08:31:29.703Z,20.95
2023-02-13T08:33:57.734Z,21.00
2023-02-13T08:36:25.538Z,20.56
2023-02-13T08:38:53.265Z,19.78
2023-02-13T08:41:22.163Z,18.33
2023-02-13T08:43:50.072Z,17.27
2023-02-13T08:46:18.216Z,15.34
2023-02-13T08:48:46.024Z,13.33
2023-02-13T08:51:14.048Z,12.70
2023-02-13T08:53:42.552Z,12.13
2023-02-13T08:56:10.935Z,12.89
2023-02-13T08:58:38.701Z,14.73
2023-02-13T09:01:09.725Z,16.06
2023-02-13T09:03:37.565Z,17.58
2023-02-13T09:06:05.543Z,18.16
2023-02-13T09:08:34.980Z,17.30
2023-02-13T09:11:03.786Z,15.92
2023-02-13T09:13:35.403Z,14.63
2023-02-13T09:16:07.051Z,13.68
2023-02-13T09:18:35.269Z,12.70
2023-02-13T09:21:05.420Z,11.12
2023-02-13T09:23:33.955Z,9.87
2023-02-13T09:26:02.273Z,8.89
2023-02-13T09:28:30.481Z,8.84
2023-02-13T09:30:58.451Z,8.02
2023-02-13T09:33:26.399Z,7.35
2023-02-13T09:35:54.148Z,5.91
2023-02-13T09:38:21.848Z,6.61
2023-02-13T09:40:51.995Z,6.52
2023-02-13T09:43:33.599Z,5.20
2023-02-13T09:46:05.627Z,5.42
2023-02-13T09:48:35.675Z,4.70
2023-02-13T09:51:03.589Z,5.40
2023-02-13T09:53:33.459Z,5.59
2023-02-13T09:56:12.922Z,6.07
2023-02-13T09:58:47.839Z,5.58
2023-02-13T10:01:34.422Z,5.02
2023-02-13T10:04:32.136Z,4.46
2023-02-13T10:07:22.664Z,4.06
2023-02-13T10:10:22.798Z,4.85
2023-02-13T10:12:53.132Z,4.41
2023-02-13T10:15:51.970Z,4.36
2023-02-13T10:18:22.095Z,4.38
2023-02-13T10:20:54.198Z,4.35
2023-02-13T10:23:26.363Z,4.66
2023-02-13T10:25:58.357Z,4.77
2023-02-13T10:28:41.573Z,4.57
2023-02-13T10:31:16.450Z,5.23
2023-02-13T10:33:56.020Z,4.98
2023-02-13T10:36:31.731Z,5.37
2023-02-13T10:39:05.608Z,5.51
2023-02-13T10:41:43.076Z,6.07
2023-02-13T10:44:35.351Z,5.01
2023-02-13T10:47:24.364Z,4.85
2023-02-13T10:50:10.568Z,4.56
2023-02-13T10:52:51.621Z,4.92
2023-02-13T10:55:35.496Z,5.04
2023-02-13T10:58:17.457Z,6.14
2023-02-13T11:00:48.154Z,5.77
2023-02-13T11:03:20.218Z,5.14
2023-02-13T11:05:48.096Z,6.10
2023-02-13T11:08:43.279Z,5.77
2023-02-13T11:11:38.118Z,5.81
2023-02-13T11:14:13.316Z,6.00
2023-02-13T11:16:53.931Z,5.94
2023-02-13T11:19:24.406Z,6.46
2023-02-13T11:22:50.695Z,6.05
2023-02-13T11:25:22.387Z,6.92
2023-02-13T11:27:50.896Z,6.27
2023-02-13T11:30:34.505Z,6.02
2023-02-13T11:33:06.137Z,6.38
2023-02-13T11:35:35.240Z,6.01
2023-02-13T11:38:12.249Z,5.31
2023-02-13T11:40:41.789Z,6.41
2023-02-13T11:43:23.901Z,6.83
2023-02-13T11:46:09.177Z,7.46
2023-02-13T11:48:36.950Z,7.43
2023-02-13T11:51:04.815Z,7.31
2023-02-13T11:53:36.676Z,7.50
2023-02-13T11:56:04.344Z,7.62
2023-02-13T11:58:32.242Z,6.79
2023-02-13T12:01:21.521Z,7.42
2023-02-13T12:04:01.511Z,7.50
2023-02-13T12:06:29.425Z,7.63
2023-02-13T12:08:57.075Z,7.79
2023-02-13T12:11:48.857Z,6.68
2023-02-13T12:14:28.878Z,7.01
2023-02-13T12:17:05.878Z,7.21
2023-02-13T12:19:47.459Z,8.03
2023-02-13T12:22:52.964Z,7.45
2023-02-13T12:25:43.039Z,7.23
2023-02-13T12:28:18.611Z,6.13
2023-02-13T12:31:00.074Z,6.90
2023-02-13T12:33:50.685Z,6.91
2023-02-13T12:36:24.848Z,7.51
2023-02-13T12:38:58.633Z,7.34
2023-02-13T12:41:43.300Z,6.64
2023-02-13T12:44:14.032Z,7.21
2023-02-13T12:46:52.956Z,7.40
2023-02-13T12:49:44.699Z,7.82
2023-02-13T12:52:33.469Z,7.22
2023-02-13T12:55:14.253Z,8.06
2023-02-13T12:58:03.268Z,8.52
2023-02-13T13:00:42.107Z,8.69
2023-02-13T13:03:38.937Z,7.56
2023-02-13T13:06:19.816Z,7.43
2023-02-13T13:08:59.803Z,7.10
2023-02-13T13:11:34.489Z,7.58
2023-02-13T13:14:11.236Z,7.44
2023-02-13T13:16:48.406Z,7.36
2023-02-13T13:19:25.781Z,7.77
2023-02-13T13:22:11.560Z,8.03
2023-02-13T13:24:48.501Z,8.08
2023-02-13T13:27:33.878Z,8.28
2023-02-13T13:30:26.099Z,8.64
2023-02-13T13:33:15.749Z,8.72
2023-02-13T13:35:47.855Z,8.97
2023-02-13T13:38:19.557Z,8.96
2023-02-13T13:40:50.238Z,9.02
2023-02-13T13:43:40.707Z,8.32
2023-02-13T13:46:32.584Z,7.40
2023-02-13T13:49:25.115Z,7.28
2023-02-13T13:51:52.881Z,6.61
2023-02-13T13:54:23.716Z,7.37
2023-02-13T13:56:54.392Z,7.42
2023-02-13T13:59:34.206Z,8.40
2023-02-13T14:02:16.895Z,8.83
2023-02-13T14:05:12.300Z,8.74
2023-02-13T14:07:43.731Z,8.53
2023-02-13T14:10:26.597Z,8.08
2023-02-13T14:12:57.100Z,7.67
2023-02-13T14:15:34.046Z,8.53
2023-02-13T14:18:12.925Z,8.58
2023-02-13T14:20:41.775Z,8.68
2023-02-13T14:23:28.140Z,8.97
2023-02-13T14:26:16.899Z,7.73
2023-02-13T14:28:50.391Z,8.30
2023-02-13T14:31:44.108Z,8.24
2023-02-13T14:34:11.858Z,8.59
2023-02-13T14:36:44.352Z,9.01
2023-02-13T14:39:30.835Z,9.04
2023-02-13T14:42:00.197Z,8.99
2023-02-13T14:45:00.033Z,9.10
2023-02-13T14:47:33.689Z,9.16
2023-02-13T14:50:02.028Z,9.03
2023-02-13T14:52:35.488Z,9.14
2023-02-13T14:55:04.280Z,9.10
2023-02-13T14:57:44.413Z,9.16
2023-02-13T15:00:30.691Z,9.13
2023-02-13T15:03:05.181Z,9.06
2023-02-13T15:05:34.010Z,9.01
2023-02-13T15:08:15.441Z,8.81
2023-02-13T15:10:46.976Z,8.88
2023-02-13T15:13:16.795Z,8.75
2023-02-13T15:15:45.371Z,8.69
2023-02-13T15:18:24.594Z,8.60
2023-02-13T15:20:54.514Z,8.33
2023-02-13T15:23:33.029Z,8.24
2023-02-13T15:26:02.036Z,7.88
2023-02-13T15:28:30.152Z,7.84
2023-02-13T15:30:59.370Z,7.86
2023-02-13T15:33:36.008Z,7.95
2023-02-13T15:36:06.090Z,7.66
2023-02-13T15:38:36.460Z,7.47
2023-02-13T15:41:12.950Z,7.38
2023-02-13T15:43:45.980Z,7.34
2023-02-13T15:46:28.184Z,7.25
2023-02-13T15:48:57.889Z,6.85
2023-02-13T15:51:27.477Z,6.52
2023-02-13T15:54:05.797Z,5.88
2023-02-13T15:56:33.628Z,5.97
2023-02-13T15:59:01.308Z,6.10
2023-02-13T16:01:29.158Z,5.77
2023-02-13T16:04:00.818Z,5.01
2023-02-13T16:06:28.561Z,5.69
2023-02-13T16:08:57.844Z,5.64
2023-02-13T16:11:28.265Z,5.24
2023-02-13T16:14:11.038Z,5.27
2023-02-13T16:17:04.866Z,5.56
2023-02-13T16:19:51.702Z,5.37
2023-02-13T16:22:39.731Z,5.00
2023-02-13T16:25:12.408Z,4.53
2023-02-13T16:27:47.555Z,4.53
2023-02-13T16:30:41.131Z,3.97
2023-02-13T16:33:32.574Z,4.30
2023-02-13T16:36:09.240Z,3.39
2023-02-13T16:38:44.271Z,3.38
2023-02-13T16:41:17.822Z,3.57
2023-02-13T16:43:51.954Z,3.65
2023-02-13T16:46:36.262Z,3.05
2023-02-13T16:49:08.060Z,3.43
2023-02-13T16:51:55.159Z,3.74
2023-02-13T16:54:30.317Z,3.25
2023-02-13T16:57:05.349Z,3.68
2023-02-13T16:59:47.761Z,3.68
2023-02-13T17:02:21.286Z,3.64
2023-02-13T17:04:53.745Z,3.69
2023-02-13T17:07:23.498Z,3.66
2023-02-13T17:09:59.561Z,3.74
2023-02-13T17:12:28.268Z,3.86
2023-02-13T17:14:59.821Z,3.56
2023-02-13T17:17:30.397Z,3.71
2023-02-13T17:19:58.962Z,3.76
2023-02-13T17:22:36.856Z,3.35
2023-02-13T17:25:07.515Z,3.02
2023-02-13T17:27:35.294Z,3.23
2023-02-13T17:30:03.163Z,3.30
2023-02-13T17:32:30.954Z,3.12
2023-02-13T17:34:58.675Z,2.99
2023-02-13T17:37:27.367Z,2.90
2023-02-13T17:39:55.051Z,2.80
2023-02-13T17:42:27.016Z,2.56
2023-02-13T17:44:56.531Z,2.54
2023-02-13T17:47:25.126Z,2.50
2023-02-13T17:49:59.201Z,2.26
2023-02-13T17:52:32.634Z,2.13
2023-02-13T17:55:00.342Z,2.52
2023-02-13T17:57:28.111Z,2.30
2023-02-13T17:59:56.946Z,2.35
2023-02-13T18:02:26.595Z,2.16
2023-02-13T18:04:54.392Z,2.03
2023-02-13T18:07:22.363Z,1.76
2023-02-13T18:09:50.328Z,2.13
2023-02-13T18:12:22.892Z,1.94
2023-02-13T18:14:51.391Z,2.06
2023-02-13T18:17:19.257Z,2.05
2023-02-13T18:19:47.018Z,2.06
2023-02-13T18:22:15.007Z,1.66
2023-02-13T18:24:42.764Z,1.68
2023-02-13T18:27:12.292Z,1.76
2023-02-13T18:29:40.285Z,1.46
2023-02-13T18:32:10.232Z,1.61
2023-02-13T18:34:39.016Z,1.40
2023-02-13T18:37:07.015Z,0.87
2023-02-13T18:39:34.866Z,0.69
2023-02-13T18:42:02.732Z,0.40
2023-02-13T18:44:30.637Z,0.31
2023-02-13T18:46:58.517Z,0.20
2023-02-13T18:49:26.246Z,0.38
2023-02-13T18:51:54.017Z,0.44
2023-02-13T18:54:21.718Z,0.36
2023-02-13T18:56:49.480Z,-0.30
2023-02-13T18:59:18.567Z,-0.44
2023-02-13T19:01:46.419Z,-0.35
2023-02-13T19:04:14.133Z,-0.09
2023-02-13T19:06:42.482Z,0.42
2023-02-13T19:09:10.273Z,0.41
2023-02-13T19:11:38.994Z,0.19
2023-02-13T19:14:06.810Z,0.36
2023-02-13T19:16:35.026Z,0.34
2023-02-13T19:19:04.365Z,0.71
2023-02-13T19:21:33.109Z,0.85
2023-02-13T19:24:02.216Z,0.87
2023-02-13T19:26:29.942Z,1.12
2023-02-13T19:28:57.798Z,1.16
2023-02-13T19:31:30.164Z,1.20
2023-02-13T19:33:59.504Z,1.34
2023-02-13T19:36:28.813Z,1.07
2023-02-13T19:38:58.226Z,1.33
2023-02-13T19:41:26.078Z,1.39
2023-02-13T19:43:53.865Z,1.30
2023-02-13T19:46:23.230Z,0.93
2023-02-13T19:48:51.219Z,0.98
2023-02-13T19:51:21.187Z,1.02
2023-02-13T19:53:48.987Z,1.24
2023-02-13T19:56:16.665Z,1.29
2023-02-13T19:58:44.453Z,1.04
2023-02-13T20:01:16.996Z,1.19
2023-02-13T20:03:44.957Z,1.04
2023-02-13T20:06:15.086Z,1.22
2023-02-13T20:08:43.169Z,1.30
2023-02-13T20:11:12.119Z,0.74
2023-02-13T20:13:39.876Z,0.97
2023-02-13T20:16:08.981Z,1.07
2023-02-13T20:18:37.025Z,1.23
2023-02-13T20:21:15.109Z,1.21
2023-02-13T20:23:43.246Z,0.97
2023-02-13T20:26:13.742Z,0.53
2023-02-13T20:28:41.705Z,0.74
2023-02-13T20:31:14.346Z,0.82
2023-02-13T20:33:42.249Z,1.04
2023-02-13T20:36:14.805Z,1.03
2023-02-13T20:38:42.645Z,1.04
2023-02-13T20:41:11.090Z,0.97
2023-02-13T20:43:38.843Z,0.73
2023-02-13T20:46:06.777Z,0.73
2023-02-13T20:48:38.305Z,0.67
2023-02-13T20:51:07.719Z,0.63
2023-02-13T20:53:35.416Z,0.93
2023-02-13T20:56:06.601Z,0.96
2023-02-13T20:58:34.644Z,0.95
2023-02-13T21:01:02.826Z,0.96
2023-02-13T21:03:30.754Z,0.87
2023-02-13T21:05:58.521Z,0.94
2023-02-13T21:08:26.293Z,0.50
2023-02-13T21:10:53.998Z,0.56
2023-02-13T21:13:21.749Z,0.97
2023-02-13T21:15:53.661Z,0.69
2023-02-13T21:18:21.548Z,0.02
2023-02-13T21:20:49.895Z,0.20
2023-02-13T21:23:17.670Z,0.44
2023-02-13T21:25:45.405Z,0.57
2023-02-13T21:28:13.154Z,0.53
2023-02-13T21:30:40.858Z,0.73
2023-02-13T21:33:08.617Z,0.54
2023-02-13T21:35:36.275Z,0.28
2023-02-13T21:38:04.007Z,-0.13
2023-02-13T21:40:31.677Z,-0.28
2023-02-13T21:42:59.436Z,0.06
2023-02-13T21:45:27.271Z,-0.12
2023-02-13T21:47:56.589Z,-0.43
2023-02-13T21:50:24.378Z,-0.06
2023-02-13T21:52:52.173Z,-0.14
2023-02-13T21:55:19.900Z,-0.38
2023-02-13T21:57:47.692Z,-0.02
2023-02-13T22:00:15.914Z,-0.68
2023-02-13T22:02:43.813Z,-0.22
2023-02-13T22:05:11.492Z,-0.68
2023-02-13T22:07:59.144Z,-0.84
2023-02-13T22:10:26.916Z,-0.88
2023-02-13T22:12:54.699Z,-0.38
2023-02-13T22:15:22.496Z,-0.83
2023-02-13T22:17:50.270Z,-0.79
2023-02-13T22:20:18.899Z,-0.58
2023-02-13T22:22:46.647Z,-0.26
2023-02-13T22:25:14.322Z,-0.25
2023-02-13T22:27:48.102Z,-0.89
2023-02-13T22:30:16.008Z,-0.41
2023-02-13T22:32:43.710Z,-0.31
2023-02-13T22:35:11.457Z,-0.31
2023-02-13T22:37:39.194Z,-0.23
2023-02-13T22:40:07.919Z,-0.36
2023-02-13T22:42:35.705Z,-0.32
2023-02-13T22:45:03.513Z,-0.37
2023-02-13T22:47:31.325Z,-0.46
2023-02-13T22:49:59.008Z,-0.64
2023-02-13T22:52:26.740Z,-0.56
2023-02-13T22:54:54.414Z,-0.83
2023-02-13T22:57:22.125Z,-0.71
2023-02-13T22:59:49.785Z,-0.85
2023-02-13T23:02:17.591Z,-1.36
2023-02-13T23:04:47.812Z,-1.32
2023-02-13T23:07:18.217Z,-1.59
2023-02-13T23:09:45.991Z,-1.17
2023-02-13T23:12:33.088Z,-1.32
2023-02-13T23:15:00.800Z,-1.39
2023-02-13T23:17:47.180Z,-1.79
2023-02-13T23:20:15.130Z,-1.51
2023-02-13T23:22:42.861Z,-1.80
2023-02-13T23:25:10.775Z,-2.02
2023-02-13T23:27:38.517Z,-1.97
2023-02-13T23:30:07.293Z,-1.66
2023-02-13T23:32:35.308Z,-1.65
2023-02-13T23:35:03.055Z,-1.98
2023-02-13T23:37:30.720Z,-1.80
2023-02-13T23:39:58.442Z,-1.18
2023-02-13T23:42:26.115Z,-1.17
2023-02-13T23:44:53.809Z,-1.41
2023-02-13T23:47:21.627Z,-1.00
2023-02-13T23:49:49.394Z,-0.94
2023-02-13T23:52:17.164Z,-0.90
2023-02-13T23:54:46.145Z,-1.07
2023-02-13T23:57:13.898Z,-1.54
2023-02-13T23:59:41.699Z,-1.33
